sensor_id;sensor_type;location;lat;lon;timestamp;P1;durP1;ratioP1;P2;durP2;ratioP2
9821;SDS011;4950;46.042;14.472;2024-02-26T00:00:28;11.70;;;6.00;;
9821;SDS011;4950;46.042;14.472;2024-02-26T00:02:56;12.82;;;6.43;;
9821;SDS011;4950;46.042;14.472;2024-02-26T00:05:23;12.55;;;6.22;;
9821;SDS011;4950;46.042;14.472;2024-02-26T00:07:50;11.50;;;6.10;;
9821;SDS011;4950;46.042;14.472;2024-02-26T00:10:17;13.32;;;6.20;;
9821;SDS011;4950;46.042;14.472;2024-02-26T00:12:43;10.02;;;5.78;;
9821;SDS011;4950;46.042;14.472;2024-02-26T00:15:10;10.52;;;5.88;;
9821;SDS011;4950;46.042;14.472;2024-02-26T00:17:37;12.20;;;6.63;;
9821;SDS011;4950;46.042;14.472;2024-02-26T00:20:06;13.93;;;7.18;;
9821;SDS011;4950;46.042;14.472;2024-02-26T00:22:34;12.07;;;7.53;;
9821;SDS011;4950;46.042;14.472;2024-02-26T00:25:00;11.93;;;6.47;;
9821;SDS011;4950;46.042;14.472;2024-02-26T00:27:27;11.82;;;6.88;;
9821;SDS011;4950;46.042;14.472;2024-02-26T00:29:54;11.65;;;6.95;;
9821;SDS011;4950;46.042;14.472;2024-02-26T00:32:20;10.70;;;6.50;;
9821;SDS011;4950;46.042;14.472;2024-02-26T00:34:47;11.77;;;6.93;;
9821;SDS011;4950;46.042;14.472;2024-02-26T00:37:15;12.13;;;6.90;;
9821;SDS011;4950;46.042;14.472;2024-02-26T00:39:42;13.77;;;7.10;;
9821;SDS011;4950;46.042;14.472;2024-02-26T00:42:09;10.93;;;6.38;;
9821;SDS011;4950;46.042;14.472;2024-02-26T00:44:36;10.40;;;5.85;;
9821;SDS011;4950;46.042;14.472;2024-02-26T00:47:03;11.90;;;5.90;;
9821;SDS011;4950;46.042;14.472;2024-02-26T00:49:29;11.25;;;6.30;;
9821;SDS011;4950;46.042;14.472;2024-02-26T00:51:56;14.38;;;7.35;;
9821;SDS011;4950;46.042;14.472;2024-02-26T00:54:24;15.95;;;10.00;;
9821;SDS011;4950;46.042;14.472;2024-02-26T00:56:51;13.18;;;9.68;;
9821;SDS011;4950;46.042;14.472;2024-02-26T00:59:17;13.70;;;9.27;;
9821;SDS011;4950;46.042;14.472;2024-02-26T01:01:44;15.13;;;10.45;;
9821;SDS011;4950;46.042;14.472;2024-02-26T01:04:11;14.10;;;10.43;;
9821;SDS011;4950;46.042;14.472;2024-02-26T01:06:38;15.05;;;10.55;;
9821;SDS011;4950;46.042;14.472;2024-02-26T01:09:05;13.43;;;10.10;;
9821;SDS011;4950;46.042;14.472;2024-02-26T01:11:34;14.73;;;9.30;;
9821;SDS011;4950;46.042;14.472;2024-02-26T01:14:01;14.20;;;9.35;;
9821;SDS011;4950;46.042;14.472;2024-02-26T01:16:29;13.60;;;9.25;;
9821;SDS011;4950;46.042;14.472;2024-02-26T01:18:57;13.00;;;9.75;;
9821;SDS011;4950;46.042;14.472;2024-02-26T01:21:23;13.05;;;9.23;;
9821;SDS011;4950;46.042;14.472;2024-02-26T01:23:52;12.52;;;9.23;;
9821;SDS011;4950;46.042;14.472;2024-02-26T01:26:18;11.25;;;8.13;;
9821;SDS011;4950;46.042;14.472;2024-02-26T01:28:48;12.00;;;8.88;;
9821;SDS011;4950;46.042;14.472;2024-02-26T01:31:15;12.45;;;8.85;;
9821;SDS011;4950;46.042;14.472;2024-02-26T01:33:41;11.55;;;8.48;;
9821;SDS011;4950;46.042;14.472;2024-02-26T01:36:08;11.88;;;9.13;;
9821;SDS011;4950;46.042;14.472;2024-02-26T01:38:35;14.02;;;10.13;;
9821;SDS011;4950;46.042;14.472;2024-02-26T01:41:01;12.95;;;8.95;;
9821;SDS011;4950;46.042;14.472;2024-02-26T01:43:28;12.48;;;8.93;;
9821;SDS011;4950;46.042;14.472;2024-02-26T01:45:56;10.98;;;8.43;;
9821;SDS011;4950;46.042;14.472;2024-02-26T01:48:23;12.90;;;8.88;;
9821;SDS011;4950;46.042;14.472;2024-02-26T01:50:49;10.73;;;8.43;;
9821;SDS011;4950;46.042;14.472;2024-02-26T01:53:16;12.57;;;8.63;;
9821;SDS011;4950;46.042;14.472;2024-02-26T01:55:44;12.10;;;8.95;;
9821;SDS011;4950;46.042;14.472;2024-02-26T01:58:10;27.38;;;9.40;;
9821;SDS011;4950;46.042;14.472;2024-02-26T02:00:38;11.75;;;8.55;;
9821;SDS011;4950;46.042;14.472;2024-02-26T02:03:06;11.30;;;8.65;;
9821;SDS011;4950;46.042;14.472;2024-02-26T02:05:33;11.68;;;8.48;;
9821;SDS011;4950;46.042;14.472;2024-02-26T02:08:06;13.25;;;8.75;;
9821;SDS011;4950;46.042;14.472;2024-02-26T02:10:33;12.25;;;8.93;;
9821;SDS011;4950;46.042;14.472;2024-02-26T02:13:00;11.60;;;9.25;;
9821;SDS011;4950;46.042;14.472;2024-02-26T02:15:27;11.65;;;8.50;;
9821;SDS011;4950;46.042;14.472;2024-02-26T02:17:53;13.43;;;9.35;;
9821;SDS011;4950;46.042;14.472;2024-02-26T02:20:24;12.80;;;9.35;;
9821;SDS011;4950;46.042;14.472;2024-02-26T02:22:52;11.60;;;8.77;;
9821;SDS011;4950;46.042;14.472;2024-02-26T02:25:19;11.20;;;8.80;;
9821;SDS011;4950;46.042;14.472;2024-02-26T02:27:45;12.80;;;8.02;;
9821;SDS011;4950;46.042;14.472;2024-02-26T02:30:12;10.30;;;7.80;;
9821;SDS011;4950;46.042;14.472;2024-02-26T02:32:40;9.40;;;7.45;;
9821;SDS011;4950;46.042;14.472;2024-02-26T02:35:07;9.02;;;7.25;;
9821;SDS011;4950;46.042;14.472;2024-02-26T02:37:35;9.15;;;6.90;;
9821;SDS011;4950;46.042;14.472;2024-02-26T02:40:03;10.52;;;7.60;;
9821;SDS011;4950;46.042;14.472;2024-02-26T02:42:31;10.20;;;6.97;;
9821;SDS011;4950;46.042;14.472;2024-02-26T02:44:57;11.40;;;6.97;;
9821;SDS011;4950;46.042;14.472;2024-02-26T02:47:24;9.15;;;6.97;;
9821;SDS011;4950;46.042;14.472;2024-02-26T02:49:51;10.48;;;7.93;;
9821;SDS011;4950;46.042;14.472;2024-02-26T02:52:17;9.98;;;7.57;;
9821;SDS011;4950;46.042;14.472;2024-02-26T02:54:45;9.88;;;7.03;;
9821;SDS011;4950;46.042;14.472;2024-02-26T02:57:12;10.32;;;7.45;;
9821;SDS011;4950;46.042;14.472;2024-02-26T02:59:39;9.93;;;6.78;;
9821;SDS011;4950;46.042;14.472;2024-02-26T03:02:05;9.18;;;6.88;;
9821;SDS011;4950;46.042;14.472;2024-02-26T03:04:32;34.65;;;7.55;;
9821;SDS011;4950;46.042;14.472;2024-02-26T03:06:59;8.98;;;7.30;;
9821;SDS011;4950;46.042;14.472;2024-02-26T03:09:26;8.85;;;6.60;;
9821;SDS011;4950;46.042;14.472;2024-02-26T03:11:54;9.68;;;6.72;;
9821;SDS011;4950;46.042;14.472;2024-02-26T03:14:21;10.10;;;6.78;;
9821;SDS011;4950;46.042;14.472;2024-02-26T03:16:47;10.57;;;7.30;;
9821;SDS011;4950;46.042;14.472;2024-02-26T03:19:14;9.80;;;7.07;;
9821;SDS011;4950;46.042;14.472;2024-02-26T03:21:42;10.15;;;7.32;;
9821;SDS011;4950;46.042;14.472;2024-02-26T03:24:08;10.77;;;7.55;;
9821;SDS011;4950;46.042;14.472;2024-02-26T03:26:35;9.75;;;6.57;;
9821;SDS011;4950;46.042;14.472;2024-02-26T03:29:03;10.57;;;7.43;;
9821;SDS011;4950;46.042;14.472;2024-02-26T03:31:30;10.38;;;7.43;;
9821;SDS011;4950;46.042;14.472;2024-02-26T03:33:57;10.25;;;7.60;;
9821;SDS011;4950;46.042;14.472;2024-02-26T03:36:24;9.68;;;6.88;;
9821;SDS011;4950;46.042;14.472;2024-02-26T03:38:51;8.65;;;6.63;;
9821;SDS011;4950;46.042;14.472;2024-02-26T03:41:17;9.60;;;6.75;;
9821;SDS011;4950;46.042;14.472;2024-02-26T03:43:44;9.27;;;6.60;;
9821;SDS011;4950;46.042;14.472;2024-02-26T03:46:12;9.95;;;6.47;;
9821;SDS011;4950;46.042;14.472;2024-02-26T03:48:39;9.75;;;7.07;;
9821;SDS011;4950;46.042;14.472;2024-02-26T03:51:06;10.68;;;6.82;;
9821;SDS011;4950;46.042;14.472;2024-02-26T03:53:37;9.40;;;6.85;;
9821;SDS011;4950;46.042;14.472;2024-02-26T03:56:04;9.80;;;6.80;;
9821;SDS011;4950;46.042;14.472;2024-02-26T03:58:31;10.10;;;7.38;;
9821;SDS011;4950;46.042;14.472;2024-02-26T04:00:58;10.93;;;7.60;;
9821;SDS011;4950;46.042;14.472;2024-02-26T04:03:26;15.13;;;7.40;;
9821;SDS011;4950;46.042;14.472;2024-02-26T04:05:53;9.60;;;6.78;;
9821;SDS011;4950;46.042;14.472;2024-02-26T04:08:20;10.63;;;7.30;;
9821;SDS011;4950;46.042;14.472;2024-02-26T04:10:47;9.30;;;6.50;;
9821;SDS011;4950;46.042;14.472;2024-02-26T04:13:14;8.65;;;6.35;;
9821;SDS011;4950;46.042;14.472;2024-02-26T04:15:40;11.13;;;7.28;;
9821;SDS011;4950;46.042;14.472;2024-02-26T04:18:07;19.27;;;7.32;;
9821;SDS011;4950;46.042;14.472;2024-02-26T04:20:35;11.98;;;7.50;;
9821;SDS011;4950;46.042;14.472;2024-02-26T04:23:02;16.52;;;8.57;;
9821;SDS011;4950;46.042;14.472;2024-02-26T04:25:29;13.40;;;8.82;;
9821;SDS011;4950;46.042;14.472;2024-02-26T04:27:56;19.05;;;9.23;;
9821;SDS011;4950;46.042;14.472;2024-02-26T04:30:22;11.13;;;8.35;;
9821;SDS011;4950;46.042;14.472;2024-02-26T04:32:49;12.90;;;8.90;;
9821;SDS011;4950;46.042;14.472;2024-02-26T04:35:16;15.50;;;10.00;;
9821;SDS011;4950;46.042;14.472;2024-02-26T04:37:44;12.23;;;8.35;;
9821;SDS011;4950;46.042;14.472;2024-02-26T04:40:11;13.20;;;8.45;;
9821;SDS011;4950;46.042;14.472;2024-02-26T04:42:38;16.45;;;9.13;;
9821;SDS011;4950;46.042;14.472;2024-02-26T04:45:05;14.20;;;9.70;;
9821;SDS011;4950;46.042;14.472;2024-02-26T04:47:33;13.85;;;8.82;;
9821;SDS011;4950;46.042;14.472;2024-02-26T04:50:00;13.57;;;9.23;;
9821;SDS011;4950;46.042;14.472;2024-02-26T04:52:27;14.20;;;9.60;;
9821;SDS011;4950;46.042;14.472;2024-02-26T04:54:55;13.23;;;9.00;;
9821;SDS011;4950;46.042;14.472;2024-02-26T04:57:21;12.25;;;8.57;;
9821;SDS011;4950;46.042;14.472;2024-02-26T04:59:48;14.18;;;9.60;;
9821;SDS011;4950;46.042;14.472;2024-02-26T05:02:15;13.13;;;9.30;;
9821;SDS011;4950;46.042;14.472;2024-02-26T05:04:41;12.75;;;9.30;;
9821;SDS011;4950;46.042;14.472;2024-02-26T05:07:08;14.75;;;10.02;;
9821;SDS011;4950;46.042;14.472;2024-02-26T05:09:35;15.98;;;9.65;;
9821;SDS011;4950;46.042;14.472;2024-02-26T05:12:03;13.63;;;8.98;;
9821;SDS011;4950;46.042;14.472;2024-02-26T05:14:30;13.93;;;9.40;;
9821;SDS011;4950;46.042;14.472;2024-02-26T05:16:57;13.65;;;9.43;;
9821;SDS011;4950;46.042;14.472;2024-02-26T05:19:24;13.32;;;9.07;;
9821;SDS011;4950;46.042;14.472;2024-02-26T05:21:50;15.48;;;9.18;;
9821;SDS011;4950;46.042;14.472;2024-02-26T05:24:17;12.82;;;8.75;;
9821;SDS011;4950;46.042;14.472;2024-02-26T05:26:47;13.75;;;8.70;;
9821;SDS011;4950;46.042;14.472;2024-02-26T05:29:15;12.23;;;8.75;;
9821;SDS011;4950;46.042;14.472;2024-02-26T05:31:42;13.55;;;9.30;;
9821;SDS011;4950;46.042;14.472;2024-02-26T05:34:09;11.40;;;8.02;;
9821;SDS011;4950;46.042;14.472;2024-02-26T05:36:36;11.10;;;8.05;;
9821;SDS011;4950;46.042;14.472;2024-02-26T05:39:02;11.68;;;8.27;;
9821;SDS011;4950;46.042;14.472;2024-02-26T05:41:29;11.57;;;8.13;;
9821;SDS011;4950;46.042;14.472;2024-02-26T05:43:56;11.15;;;7.45;;
9821;SDS011;4950;46.042;14.472;2024-02-26T05:46:25;11.60;;;7.85;;
9821;SDS011;4950;46.042;14.472;2024-02-26T05:48:53;17.02;;;9.13;;
9821;SDS011;4950;46.042;14.472;2024-02-26T05:51:19;13.35;;;9.18;;
9821;SDS011;4950;46.042;14.472;2024-02-26T05:53:46;11.98;;;8.65;;
9821;SDS011;4950;46.042;14.472;2024-02-26T05:56:18;13.90;;;8.68;;
9821;SDS011;4950;46.042;14.472;2024-02-26T05:58:45;11.68;;;7.32;;
9821;SDS011;4950;46.042;14.472;2024-02-26T06:01:12;11.70;;;8.10;;
9821;SDS011;4950;46.042;14.472;2024-02-26T06:03:40;11.25;;;7.97;;
9821;SDS011;4950;46.042;14.472;2024-02-26T06:06:07;11.13;;;7.35;;
9821;SDS011;4950;46.042;14.472;2024-02-26T06:08:34;11.50;;;7.78;;
9821;SDS011;4950;46.042;14.472;2024-02-26T06:11:04;10.60;;;7.47;;
9821;SDS011;4950;46.042;14.472;2024-02-26T06:13:31;9.77;;;7.22;;
9821;SDS011;4950;46.042;14.472;2024-02-26T06:15:58;10.52;;;7.00;;
9821;SDS011;4950;46.042;14.472;2024-02-26T06:18:24;10.63;;;6.95;;
9821;SDS011;4950;46.042;14.472;2024-02-26T06:20:52;14.73;;;6.93;;
9821;SDS011;4950;46.042;14.472;2024-02-26T06:23:19;9.43;;;7.10;;
9821;SDS011;4950;46.042;14.472;2024-02-26T06:25:46;12.68;;;7.43;;
9821;SDS011;4950;46.042;14.472;2024-02-26T06:28:13;11.35;;;6.78;;
9821;SDS011;4950;46.042;14.472;2024-02-26T06:30:40;11.43;;;6.57;;
9821;SDS011;4950;46.042;14.472;2024-02-26T06:33:06;10.07;;;6.65;;
9821;SDS011;4950;46.042;14.472;2024-02-26T06:35:33;9.10;;;6.35;;
9821;SDS011;4950;46.042;14.472;2024-02-26T06:38:01;9.63;;;6.95;;
9821;SDS011;4950;46.042;14.472;2024-02-26T06:40:28;12.18;;;6.40;;
9821;SDS011;4950;46.042;14.472;2024-02-26T06:42:54;9.15;;;6.50;;
9821;SDS011;4950;46.042;14.472;2024-02-26T06:45:21;10.73;;;6.75;;
9821;SDS011;4950;46.042;14.472;2024-02-26T06:47:48;12.18;;;7.63;;
9821;SDS011;4950;46.042;14.472;2024-02-26T06:50:15;12.27;;;8.48;;
9821;SDS011;4950;46.042;14.472;2024-02-26T06:52:43;11.38;;;7.55;;
9821;SDS011;4950;46.042;14.472;2024-02-26T06:55:12;17.53;;;9.60;;
9821;SDS011;4950;46.042;14.472;2024-02-26T06:57:38;18.42;;;9.88;;
9821;SDS011;4950;46.042;14.472;2024-02-26T07:00:05;17.13;;;8.98;;
9821;SDS011;4950;46.042;14.472;2024-02-26T07:02:32;11.80;;;7.95;;
9821;SDS011;4950;46.042;14.472;2024-02-26T07:04:59;13.20;;;8.73;;
9821;SDS011;4950;46.042;14.472;2024-02-26T07:07:26;19.40;;;10.05;;
9821;SDS011;4950;46.042;14.472;2024-02-26T07:09:52;37.13;;;16.50;;
9821;SDS011;4950;46.042;14.472;2024-02-26T07:12:23;32.53;;;14.85;;
9821;SDS011;4950;46.042;14.472;2024-02-26T07:14:49;21.25;;;11.10;;
9821;SDS011;4950;46.042;14.472;2024-02-26T07:17:17;15.48;;;9.60;;
9821;SDS011;4950;46.042;14.472;2024-02-26T07:19:44;17.20;;;10.95;;
9821;SDS011;4950;46.042;14.472;2024-02-26T07:22:11;14.15;;;9.65;;
9821;SDS011;4950;46.042;14.472;2024-02-26T07:24:38;13.13;;;9.30;;
9821;SDS011;4950;46.042;14.472;2024-02-26T07:27:05;15.45;;;9.73;;
9821;SDS011;4950;46.042;14.472;2024-02-26T07:29:33;19.10;;;9.48;;
9821;SDS011;4950;46.042;14.472;2024-02-26T07:32:00;14.55;;;10.13;;
9821;SDS011;4950;46.042;14.472;2024-02-26T07:34:27;13.13;;;9.23;;
9821;SDS011;4950;46.042;14.472;2024-02-26T07:36:54;25.23;;;10.90;;
9821;SDS011;4950;46.042;14.472;2024-02-26T07:39:21;15.60;;;10.35;;
9821;SDS011;4950;46.042;14.472;2024-02-26T07:41:48;16.45;;;11.50;;
9821;SDS011;4950;46.042;14.472;2024-02-26T07:44:16;20.08;;;10.35;;
9821;SDS011;4950;46.042;14.472;2024-02-26T07:46:44;24.30;;;11.38;;
9821;SDS011;4950;46.042;14.472;2024-02-26T07:49:11;13.73;;;9.80;;
9821;SDS011;4950;46.042;14.472;2024-02-26T07:51:38;22.67;;;11.63;;
9821;SDS011;4950;46.042;14.472;2024-02-26T07:54:04;19.13;;;10.80;;
9821;SDS011;4950;46.042;14.472;2024-02-26T07:56:31;15.05;;;9.95;;
9821;SDS011;4950;46.042;14.472;2024-02-26T07:58:58;18.58;;;10.23;;
9821;SDS011;4950;46.042;14.472;2024-02-26T08:01:24;17.10;;;10.10;;
9821;SDS011;4950;46.042;14.472;2024-02-26T08:03:53;12.88;;;9.25;;
9821;SDS011;4950;46.042;14.472;2024-02-26T08:06:20;13.93;;;8.45;;
9821;SDS011;4950;46.042;14.472;2024-02-26T08:08:47;14.30;;;9.35;;
9821;SDS011;4950;46.042;14.472;2024-02-26T08:11:14;16.52;;;9.65;;
9821;SDS011;4950;46.042;14.472;2024-02-26T08:13:41;12.80;;;8.15;;
9821;SDS011;4950;46.042;14.472;2024-02-26T08:16:08;12.63;;;8.90;;
9821;SDS011;4950;46.042;14.472;2024-02-26T08:18:35;12.75;;;8.25;;
9821;SDS011;4950;46.042;14.472;2024-02-26T08:21:03;13.77;;;8.77;;
9821;SDS011;4950;46.042;14.472;2024-02-26T08:23:30;13.03;;;8.80;;
9821;SDS011;4950;46.042;14.472;2024-02-26T08:25:57;13.20;;;9.07;;
9821;SDS011;4950;46.042;14.472;2024-02-26T08:28:24;14.38;;;8.55;;
9821;SDS011;4950;46.042;14.472;2024-02-26T08:30:50;11.23;;;8.20;;
9821;SDS011;4950;46.042;14.472;2024-02-26T08:33:17;12.57;;;9.15;;
9821;SDS011;4950;46.042;14.472;2024-02-26T08:35:44;13.55;;;8.90;;
9821;SDS011;4950;46.042;14.472;2024-02-26T08:38:12;14.07;;;8.38;;
9821;SDS011;4950;46.042;14.472;2024-02-26T08:40:38;11.77;;;8.02;;
9821;SDS011;4950;46.042;14.472;2024-02-26T08:43:05;12.15;;;7.93;;
9821;SDS011;4950;46.042;14.472;2024-02-26T08:45:32;11.88;;;7.72;;
9821;SDS011;4950;46.042;14.472;2024-02-26T08:47:58;9.73;;;7.65;;
9821;SDS011;4950;46.042;14.472;2024-02-26T08:50:25;8.27;;;6.43;;
9821;SDS011;4950;46.042;14.472;2024-02-26T08:52:52;12.48;;;8.23;;
9821;SDS011;4950;46.042;14.472;2024-02-26T08:55:20;13.18;;;9.15;;
9821;SDS011;4950;46.042;14.472;2024-02-26T08:57:46;14.07;;;9.38;;
9821;SDS011;4950;46.042;14.472;2024-02-26T09:00:14;12.60;;;8.98;;
9821;SDS011;4950;46.042;14.472;2024-02-26T09:02:43;12.85;;;8.88;;
9821;SDS011;4950;46.042;14.472;2024-02-26T09:05:09;12.95;;;8.50;;
9821;SDS011;4950;46.042;14.472;2024-02-26T09:07:36;12.18;;;9.02;;
9821;SDS011;4950;46.042;14.472;2024-02-26T09:10:03;14.55;;;10.00;;
9821;SDS011;4950;46.042;14.472;2024-02-26T09:12:34;12.02;;;9.10;;
9821;SDS011;4950;46.042;14.472;2024-02-26T09:15:01;12.52;;;9.18;;
9821;SDS011;4950;46.042;14.472;2024-02-26T09:17:28;11.27;;;8.73;;
9821;SDS011;4950;46.042;14.472;2024-02-26T09:19:54;13.98;;;9.68;;
9821;SDS011;4950;46.042;14.472;2024-02-26T09:22:21;13.77;;;9.88;;
9821;SDS011;4950;46.042;14.472;2024-02-26T09:24:48;14.20;;;9.25;;
9821;SDS011;4950;46.042;14.472;2024-02-26T09:27:16;13.07;;;10.25;;
9821;SDS011;4950;46.042;14.472;2024-02-26T09:29:44;15.85;;;11.75;;
9821;SDS011;4950;46.042;14.472;2024-02-26T09:32:11;19.48;;;10.98;;
9821;SDS011;4950;46.042;14.472;2024-02-26T09:34:39;13.52;;;10.25;;
9821;SDS011;4950;46.042;14.472;2024-02-26T09:37:06;21.15;;;11.30;;
9821;SDS011;4950;46.042;14.472;2024-02-26T09:39:33;20.42;;;10.43;;
9821;SDS011;4950;46.042;14.472;2024-02-26T09:42:00;16.80;;;10.57;;
9821;SDS011;4950;46.042;14.472;2024-02-26T09:44:31;16.38;;;11.35;;
9821;SDS011;4950;46.042;14.472;2024-02-26T09:47:04;18.42;;;12.18;;
9821;SDS011;4950;46.042;14.472;2024-02-26T09:49:34;16.42;;;11.13;;
9821;SDS011;4950;46.042;14.472;2024-02-26T09:52:02;14.85;;;10.30;;
9821;SDS011;4950;46.042;14.472;2024-02-26T09:54:31;22.23;;;11.70;;
9821;SDS011;4950;46.042;14.472;2024-02-26T09:56:59;19.60;;;13.07;;
9821;SDS011;4950;46.042;14.472;2024-02-26T09:59:29;24.35;;;12.75;;
9821;SDS011;4950;46.042;14.472;2024-02-26T10:01:59;19.48;;;12.05;;
9821;SDS011;4950;46.042;14.472;2024-02-26T10:04:29;17.17;;;10.45;;
9821;SDS011;4950;46.042;14.472;2024-02-26T10:09:26;16.92;;;10.90;;
9821;SDS011;4950;46.042;14.472;2024-02-26T10:11:53;16.35;;;10.77;;
9821;SDS011;4950;46.042;14.472;2024-02-26T10:14:20;15.38;;;11.15;;
9821;SDS011;4950;46.042;14.472;2024-02-26T10:16:47;14.65;;;10.43;;
9821;SDS011;4950;46.042;14.472;2024-02-26T10:19:24;15.47;;;11.03;;
9821;SDS011;4950;46.042;14.472;2024-02-26T10:21:55;17.23;;;11.00;;
9821;SDS011;4950;46.042;14.472;2024-02-26T10:24:23;16.58;;;11.05;;
9821;SDS011;4950;46.042;14.472;2024-02-26T10:26:50;16.85;;;10.88;;
9821;SDS011;4950;46.042;14.472;2024-02-26T10:29:18;19.48;;;11.45;;
9821;SDS011;4950;46.042;14.472;2024-02-26T10:31:44;17.25;;;11.82;;
9821;SDS011;4950;46.042;14.472;2024-02-26T10:34:11;25.48;;;12.57;;
9821;SDS011;4950;46.042;14.472;2024-02-26T10:36:38;25.02;;;13.00;;
9821;SDS011;4950;46.042;14.472;2024-02-26T10:39:07;19.10;;;11.68;;
9821;SDS011;4950;46.042;14.472;2024-02-26T10:41:34;18.00;;;12.65;;
9821;SDS011;4950;46.042;14.472;2024-02-26T10:44:01;19.25;;;11.73;;
9821;SDS011;4950;46.042;14.472;2024-02-26T10:46:28;16.17;;;11.68;;
9821;SDS011;4950;46.042;14.472;2024-02-26T10:48:55;22.08;;;12.63;;
9821;SDS011;4950;46.042;14.472;2024-02-26T10:51:25;15.30;;;11.43;;
9821;SDS011;4950;46.042;14.472;2024-02-26T10:53:54;19.40;;;12.25;;
9821;SDS011;4950;46.042;14.472;2024-02-26T10:56:26;24.77;;;13.25;;
9821;SDS011;4950;46.042;14.472;2024-02-26T10:58:54;18.15;;;11.65;;
9821;SDS011;4950;46.042;14.472;2024-02-26T11:01:22;21.33;;;12.65;;
9821;SDS011;4950;46.042;14.472;2024-02-26T11:03:50;16.00;;;11.75;;
9821;SDS011;4950;46.042;14.472;2024-02-26T11:06:19;19.50;;;12.15;;
9821;SDS011;4950;46.042;14.472;2024-02-26T11:08:47;18.50;;;11.63;;
9821;SDS011;4950;46.042;14.472;2024-02-26T11:11:15;20.77;;;12.70;;
9821;SDS011;4950;46.042;14.472;2024-02-26T11:13:45;18.00;;;12.25;;
9821;SDS011;4950;46.042;14.472;2024-02-26T11:16:16;13.38;;;10.50;;
9821;SDS011;4950;46.042;14.472;2024-02-26T11:18:45;20.70;;;12.07;;
9821;SDS011;4950;46.042;14.472;2024-02-26T11:21:14;19.70;;;12.00;;
9821;SDS011;4950;46.042;14.472;2024-02-26T11:23:41;18.60;;;11.65;;
9821;SDS011;4950;46.042;14.472;2024-02-26T11:26:08;16.23;;;10.73;;
9821;SDS011;4950;46.042;14.472;2024-02-26T11:28:39;18.20;;;10.77;;
9821;SDS011;4950;46.042;14.472;2024-02-26T11:31:09;17.17;;;10.55;;
9821;SDS011;4950;46.042;14.472;2024-02-26T11:36:07;20.23;;;10.20;;
9821;SDS011;4950;46.042;14.472;2024-02-26T11:38:35;16.70;;;9.43;;
9821;SDS011;4950;46.042;14.472;2024-02-26T11:41:02;13.35;;;9.20;;
9821;SDS011;4950;46.042;14.472;2024-02-26T11:43:49;17.40;;;11.48;;
9821;SDS011;4950;46.042;14.472;2024-02-26T11:46:28;17.17;;;10.23;;
9821;SDS011;4950;46.042;14.472;2024-02-26T11:48:58;16.45;;;10.20;;
9821;SDS011;4950;46.042;14.472;2024-02-26T11:51:26;20.55;;;10.52;;
9821;SDS011;4950;46.042;14.472;2024-02-26T11:53:54;20.73;;;9.57;;
9821;SDS011;4950;46.042;14.472;2024-02-26T11:56:23;17.45;;;9.98;;
9821;SDS011;4950;46.042;14.472;2024-02-26T11:58:53;22.80;;;10.75;;
9821;SDS011;4950;46.042;14.472;2024-02-26T12:01:36;17.17;;;10.35;;
9821;SDS011;4950;46.042;14.472;2024-02-26T12:04:04;14.80;;;10.02;;
9821;SDS011;4950;46.042;14.472;2024-02-26T12:06:39;16.20;;;11.00;;
9821;SDS011;4950;46.042;14.472;2024-02-26T12:09:07;15.20;;;9.75;;
9821;SDS011;4950;46.042;14.472;2024-02-26T12:11:37;14.70;;;9.82;;
9821;SDS011;4950;46.042;14.472;2024-02-26T12:14:05;17.73;;;10.40;;
9821;SDS011;4950;46.042;14.472;2024-02-26T12:16:36;16.90;;;10.57;;
9821;SDS011;4950;46.042;14.472;2024-02-26T12:19:04;18.65;;;12.07;;
9821;SDS011;4950;46.042;14.472;2024-02-26T12:21:33;18.50;;;11.82;;
9821;SDS011;4950;46.042;14.472;2024-02-26T12:24:09;24.55;;;12.00;;
9821;SDS011;4950;46.042;14.472;2024-02-26T12:26:36;37.38;;;18.50;;
9821;SDS011;4950;46.042;14.472;2024-02-26T12:29:03;26.88;;;14.43;;
9821;SDS011;4950;46.042;14.472;2024-02-26T12:31:30;15.82;;;9.82;;
9821;SDS011;4950;46.042;14.472;2024-02-26T12:33:58;24.15;;;11.82;;
9821;SDS011;4950;46.042;14.472;2024-02-26T12:36:26;25.23;;;11.33;;
9821;SDS011;4950;46.042;14.472;2024-02-26T12:38:53;17.58;;;11.45;;
9821;SDS011;4950;46.042;14.472;2024-02-26T12:41:20;16.42;;;10.55;;
9821;SDS011;4950;46.042;14.472;2024-02-26T12:43:47;20.45;;;10.10;;
9821;SDS011;4950;46.042;14.472;2024-02-26T12:46:14;14.07;;;9.18;;
9821;SDS011;4950;46.042;14.472;2024-02-26T12:48:42;14.95;;;9.60;;
9821;SDS011;4950;46.042;14.472;2024-02-26T12:51:11;14.35;;;9.63;;
9821;SDS011;4950;46.042;14.472;2024-02-26T12:53:38;15.63;;;9.82;;
9821;SDS011;4950;46.042;14.472;2024-02-26T12:56:05;14.18;;;8.50;;
9821;SDS011;4950;46.042;14.472;2024-02-26T12:58:35;12.45;;;7.78;;
9821;SDS011;4950;46.042;14.472;2024-02-26T13:01:05;17.60;;;7.47;;
9821;SDS011;4950;46.042;14.472;2024-02-26T13:03:32;15.95;;;7.10;;
9821;SDS011;4950;46.042;14.472;2024-02-26T13:06:00;12.55;;;6.85;;
9821;SDS011;4950;46.042;14.472;2024-02-26T13:08:29;10.38;;;5.53;;
9821;SDS011;4950;46.042;14.472;2024-02-26T13:10:56;12.45;;;5.35;;
9821;SDS011;4950;46.042;14.472;2024-02-26T13:13:22;10.25;;;4.75;;
9821;SDS011;4950;46.042;14.472;2024-02-26T13:15:49;10.73;;;5.95;;
9821;SDS011;4950;46.042;14.472;2024-02-26T13:18:16;12.70;;;6.55;;
9821;SDS011;4950;46.042;14.472;2024-02-26T13:20:42;16.42;;;7.07;;
9821;SDS011;4950;46.042;14.472;2024-02-26T13:23:10;10.15;;;6.32;;
9821;SDS011;4950;46.042;14.472;2024-02-26T13:25:39;14.18;;;7.15;;
9821;SDS011;4950;46.042;14.472;2024-02-26T13:28:13;14.73;;;6.75;;
9821;SDS011;4950;46.042;14.472;2024-02-26T13:30:49;14.10;;;6.55;;
9821;SDS011;4950;46.042;14.472;2024-02-26T13:33:17;12.75;;;6.22;;
9821;SDS011;4950;46.042;14.472;2024-02-26T13:35:43;18.23;;;6.18;;
9821;SDS011;4950;46.042;14.472;2024-02-26T13:38:10;17.75;;;7.10;;
9821;SDS011;4950;46.042;14.472;2024-02-26T13:40:37;14.70;;;6.45;;
9821;SDS011;4950;46.042;14.472;2024-02-26T13:43:07;12.30;;;5.68;;
9821;SDS011;4950;46.042;14.472;2024-02-26T13:45:34;13.13;;;7.30;;
9821;SDS011;4950;46.042;14.472;2024-02-26T13:48:01;9.73;;;5.90;;
9821;SDS011;4950;46.042;14.472;2024-02-26T13:50:29;15.02;;;6.65;;
9821;SDS011;4950;46.042;14.472;2024-02-26T13:52:56;9.80;;;5.05;;
9821;SDS011;4950;46.042;14.472;2024-02-26T13:55:23;12.70;;;5.10;;
9821;SDS011;4950;46.042;14.472;2024-02-26T13:57:51;12.73;;;4.97;;
9821;SDS011;4950;46.042;14.472;2024-02-26T14:00:20;9.88;;;4.57;;
9821;SDS011;4950;46.042;14.472;2024-02-26T14:02:47;12.77;;;5.07;;
9821;SDS011;4950;46.042;14.472;2024-02-26T14:05:14;10.07;;;3.53;;
9821;SDS011;4950;46.042;14.472;2024-02-26T14:07:41;7.35;;;3.60;;
9821;SDS011;4950;46.042;14.472;2024-02-26T14:10:08;9.35;;;3.42;;
9821;SDS011;4950;46.042;14.472;2024-02-26T14:12:38;8.00;;;3.67;;
9821;SDS011;4950;46.042;14.472;2024-02-26T14:15:06;7.38;;;3.47;;
9821;SDS011;4950;46.042;14.472;2024-02-26T14:17:35;11.95;;;3.88;;
9821;SDS011;4950;46.042;14.472;2024-02-26T14:20:02;9.27;;;3.57;;
9821;SDS011;4950;46.042;14.472;2024-02-26T14:22:29;7.82;;;3.55;;
9821;SDS011;4950;46.042;14.472;2024-02-26T14:24:56;8.48;;;3.97;;
9821;SDS011;4950;46.042;14.472;2024-02-26T14:27:24;8.05;;;4.20;;
9821;SDS011;4950;46.042;14.472;2024-02-26T14:29:51;4.85;;;2.97;;
9821;SDS011;4950;46.042;14.472;2024-02-26T14:32:18;9.88;;;4.15;;
9821;SDS011;4950;46.042;14.472;2024-02-26T14:34:46;10.30;;;4.00;;
9821;SDS011;4950;46.042;14.472;2024-02-26T14:37:13;8.15;;;3.95;;
9821;SDS011;4950;46.042;14.472;2024-02-26T14:39:39;8.95;;;3.70;;
9821;SDS011;4950;46.042;14.472;2024-02-26T14:42:06;6.90;;;3.92;;
9821;SDS011;4950;46.042;14.472;2024-02-26T14:44:33;9.82;;;4.07;;
9821;SDS011;4950;46.042;14.472;2024-02-26T14:47:00;9.82;;;3.75;;
9821;SDS011;4950;46.042;14.472;2024-02-26T14:49:26;6.43;;;3.40;;
9821;SDS011;4950;46.042;14.472;2024-02-26T14:51:56;11.75;;;4.18;;